Time;durP1;ratioP1;P1;durP2;ratioP2;P2;SDS_P1;SDS_P2;PMS_P1;PMS_P2;Temp;Humidity;BMP_temperature;BMP_pressure;BME280_temperature;BME280_humidity;BME280_pressure;Samples;Min_cycle;Max_cycle;Signal;HPM_P1;HPM_P2
2022/11/30 00:00:22;;;;;;;136.47;43.70;;;6.70;99.90;;;;;;5052619;28;20902;-68
2022/11/30 00:02:52;;;;;;;123.13;38.43;;;6.80;99.90;;;;;;5056102;28;20470;-69
2022/11/30 00:05:21;;;;;;;114.97;44.33;;;6.90;99.90;;;;;;5056303;28;20577;-68
2022/11/30 00:07:48;;;;;;;115.50;38.93;;;6.90;99.90;;;;;;5059244;28;20467;-68
2022/11/30 00:10:15;;;;;;;106.47;38.97;;;6.90;99.90;;;;;;5060851;28;20466;-68
2022/11/30 00:12:43;;;;;;;126.33;44.30;;;7.00;99.90;;;;;;5054169;28;20464;-68
2022/11/30 00:15:11;;;;;;;105.90;39.20;;;7.00;99.90;;;;;;5054869;28;20467;-68
2022/11/30 00:17:38;;;;;;;118.87;39.90;;;7.00;99.90;;;;;;5051113;28;20957;-68
2022/11/30 00:20:06;;;;;;;118.90;42.40;;;7.10;99.90;;;;;;5054872;28;20474;-68
2022/11/30 00:22:35;;;;;;;104.27;37.70;;;7.10;99.90;;;;;;5053890;28;20506;-68
2022/11/30 00:25:03;;;;;;;119.73;41.50;;;7.10;99.90;;;;;;5057127;28;20697;-68
2022/11/30 00:27:30;;;;;;;124.47;41.57;;;7.10;99.90;;;;;;5053800;28;20467;-68
2022/11/30 00:29:57;;;;;;;112.63;41.13;;;7.10;99.90;;;;;;5059504;28;20467;-68
2022/11/30 00:32:25;;;;;;;120.00;37.57;;;7.20;99.90;;;;;;5055485;28;20479;-68
2022/11/30 00:34:51;;;;;;;127.77;41.53;;;7.20;99.90;;;;;;5049621;28;20851;-68
2022/11/30 00:37:18;;;;;;;107.37;40.50;;;7.20;99.90;;;;;;5052661;28;20452;-68
2022/11/30 00:39:46;;;;;;;111.73;39.17;;;7.10;99.90;;;;;;5053737;28;20513;-68
2022/11/30 00:42:14;;;;;;;130.47;39.67;;;7.20;99.90;;;;;;5053188;28;20490;-68
2022/11/30 00:44:41;;;;;;;109.67;42.67;;;7.10;99.90;;;;;;5059284;28;20478;-68
2022/11/30 00:47:08;;;;;;;109.43;40.87;;;7.20;99.90;;;;;;5059917;28;20861;-68
2022/11/30 00:49:35;;;;;;;133.77;41.57;;;7.20;99.90;;;;;;5059701;28;20884;-68
2022/11/30 00:52:02;;;;;;;121.47;41.70;;;7.20;99.90;;;;;;5054047;28;20496;-68
2022/11/30 00:54:29;;;;;;;136.07;41.43;;;7.20;99.90;;;;;;5059373;28;20469;-68
2022/11/30 00:56:58;;;;;;;122.53;42.20;;;7.20;99.90;;;;;;5053895;28;20830;-68
2022/11/30 00:59:25;;;;;;;119.20;38.77;;;7.20;99.90;;;;;;5056757;28;20467;-68
2022/11/30 01:01:54;;;;;;;137.00;39.47;;;7.20;99.90;;;;;;5056593;28;20519;-68
2022/11/30 01:04:21;;;;;;;148.50;43.03;;;7.20;99.90;;;;;;5057464;28;20573;-68
2022/11/30 01:06:48;;;;;;;126.60;43.43;;;7.30;99.90;;;;;;5055219;28;20472;-68
2022/11/30 01:09:16;;;;;;;132.90;40.13;;;7.30;99.90;;;;;;5057740;28;20862;-68
2022/11/30 01:11:42;;;;;;;133.70;48.47;;;7.30;99.90;;;;;;5058375;28;20827;-68
2022/11/30 01:14:11;;;;;;;133.27;45.70;;;7.30;99.90;;;;;;5055805;28;20447;-68
2022/11/30 01:16:38;;;;;;;151.50;50.77;;;7.30;99.90;;;;;;5063366;28;21413;-69
2022/11/30 01:19:06;;;;;;;140.40;52.60;;;7.30;99.90;;;;;;5058247;28;20540;-68
2022/11/30 01:21:34;;;;;;;119.07;49.50;;;7.30;99.90;;;;;;5055231;28;20483;-69
2022/11/30 01:24:00;;;;;;;101.90;49.90;;;7.30;99.90;;;;;;5055591;28;20949;-69
2022/11/30 01:26:27;;;;;;;179.73;54.70;;;7.30;99.90;;;;;;5055737;28;20470;-69
2022/11/30 01:28:55;;;;;;;198.33;56.27;;;7.20;99.90;;;;;;5054278;28;20460;-69
2022/11/30 01:31:24;;;;;;;205.67;54.80;;;7.20;99.90;;;;;;5054017;28;20855;-69
2022/11/30 01:33:52;;;;;;;165.17;54.77;;;7.20;99.90;;;;;;5060214;28;20455;-69
2022/11/30 01:36:21;;;;;;;196.43;53.70;;;7.30;99.90;;;;;;5055334;28;20455;-68
2022/11/30 01:38:49;;;;;;;185.83;53.93;;;7.30;99.90;;;;;;5057318;28;20455;-68
2022/11/30 01:41:20;;;;;;;207.67;56.03;;;7.30;99.90;;;;;;5058415;28;20506;-69
2022/11/30 01:43:49;;;;;;;174.00;53.47;;;7.30;99.90;;;;;;5058536;28;20459;-69
2022/11/30 01:46:28;;;;;;;299.03;60.87;;;7.30;99.90;;;;;;5055360;28;20466;-69
2022/11/30 01:49:00;;;;;;;287.23;60.80;;;7.30;99.90;;;;;;5054190;28;20472;-69
2022/11/30 01:51:33;;;;;;;335.63;56.47;;;7.20;99.90;;;;;;5052242;28;20965;-68
2022/11/30 01:54:01;;;;;;;249.37;55.50;;;7.30;99.90;;;;;;5054356;28;20462;-69
2022/11/30 01:56:28;;;;;;;246.70;54.40;;;7.30;99.90;;;;;;5058853;28;20459;-69
2022/11/30 01:58:55;;;;;;;305.80;59.50;;;7.30;99.90;;;;;;5051110;28;20466;-69
2022/11/30 02:01:23;;;;;;;466.17;67.10;;;7.30;99.90;;;;;;5057598;28;20492;-69
2022/11/30 02:03:57;;;;;;;381.20;61.83;;;7.20;99.90;;;;;;5056710;28;20477;-69
2022/11/30 02:06:25;;;;;;;594.37;73.87;;;7.20;99.90;;;;;;5056960;28;20678;-69
2022/11/30 02:08:53;;;;;;;406.43;68.70;;;7.20;99.90;;;;;;5059937;28;20464;-69
2022/11/30 02:11:21;;;;;;;418.20;64.17;;;7.20;99.90;;;;;;5060117;28;20860;-68
2022/11/30 02:14:12;;;;;;;367.37;59.83;;;7.20;99.90;;;;;;5055235;28;20455;-69
2022/11/30 02:16:49;;;;;;;590.03;78.40;;;7.10;99.90;;;;;;5052001;28;20462;-68
2022/11/30 02:19:54;;;;;;;510.53;70.40;;;7.00;99.90;;;;;;5054242;28;20982;-69
2022/11/30 02:22:36;;;;;;;447.17;71.57;;;7.00;99.90;;;;;;5058696;28;20486;-68
2022/11/30 02:25:09;;;;;;;604.30;71.20;;;7.00;99.90;;;;;;5052640;28;20470;-68
2022/11/30 02:27:59;;;;;;;395.30;63.63;;;7.10;99.90;;;;;;5054866;28;20812;-69
2022/11/30 02:30:29;;;;;;;408.03;62.23;;;7.00;99.90;;;;;;5057546;28;20467;-69
2022/11/30 02:32:59;;;;;;;390.67;56.67;;;7.00;99.90;;;;;;5062136;28;20466;-68
2022/11/30 02:35:30;;;;;;;612.13;69.60;;;7.10;99.90;;;;;;5051325;28;20462;-69
2022/11/30 02:37:58;;;;;;;598.50;72.30;;;7.00;99.90;;;;;;5050524;28;20520;-69
2022/11/30 02:40:25;;;;;;;571.33;71.03;;;7.10;99.90;;;;;;5058042;28;20466;-69
2022/11/30 02:42:53;;;;;;;625.13;72.00;;;7.20;99.90;;;;;;5057252;28;20530;-69
2022/11/30 02:45:25;;;;;;;448.33;62.87;;;7.10;99.90;;;;;;5062020;28;20462;-68
2022/11/30 02:47:59;;;;;;;424.00;60.27;;;7.10;99.90;;;;;;5061771;28;20487;-69
2022/11/30 02:50:30;;;;;;;415.23;60.77;;;7.10;99.90;;;;;;5055903;28;20835;-68
2022/11/30 02:52:58;;;;;;;362.37;56.27;;;7.00;99.90;;;;;;5056589;28;20490;-69
2022/11/30 02:55:25;;;;;;;476.43;64.57;;;7.00;99.90;;;;;;5057602;28;20823;-69
2022/11/30 02:57:51;;;;;;;541.93;68.37;;;7.00;99.90;;;;;;5054400;28;20474;-68
2022/11/30 03:00:19;;;;;;;636.40;68.23;;;7.00;99.90;;;;;;5061930;28;20474;-69
2022/11/30 03:02:46;;;;;;;526.97;68.27;;;7.10;99.90;;;;;;5061792;28;20482;-69
2022/11/30 03:05:14;;;;;;;419.23;60.17;;;7.00;99.90;;;;;;5059158;28;20493;-68
2022/11/30 03:07:41;;;;;;;470.60;63.50;;;7.00;99.90;;;;;;5057682;28;20827;-69
2022/11/30 03:10:09;;;;;;;475.63;61.70;;;7.00;99.90;;;;;;5056070;28;20473;-69
2022/11/30 03:12:37;;;;;;;503.93;63.30;;;7.10;99.90;;;;;;5056055;28;20471;-68
2022/11/30 03:15:04;;;;;;;245.87;47.60;;;7.20;99.90;;;;;;5061230;28;21001;-69
2022/11/30 03:17:31;;;;;;;564.20;60.47;;;7.10;99.90;;;;;;5059342;28;20460;-68
2022/11/30 03:19:58;;;;;;;557.40;68.03;;;7.00;99.90;;;;;;5063059;28;20476;-68
2022/11/30 03:22:26;;;;;;;454.73;59.57;;;7.10;99.90;;;;;;5052379;28;20711;-69
2022/11/30 03:24:53;;;;;;;474.77;57.37;;;7.10;99.90;;;;;;5059046;28;20455;-69
2022/11/30 03:27:21;;;;;;;533.30;63.97;;;7.10;99.90;;;;;;5054977;28;20829;-69
2022/11/30 03:29:48;;;;;;;334.27;55.50;;;7.10;99.90;;;;;;5051761;28;20499;-69
2022/11/30 03:32:15;;;;;;;433.43;58.20;;;7.00;99.90;;;;;;5063524;28;20464;-68
2022/11/30 03:34:41;;;;;;;347.73;53.90;;;7.10;99.90;;;;;;5060057;28;20467;-69
2022/11/30 03:37:09;;;;;;;318.27;54.73;;;7.00;99.90;;;;;;5057586;28;20862;-69
2022/11/30 03:39:37;;;;;;;449.10;57.60;;;7.10;99.90;;;;;;5057782;28;21185;-69
2022/11/30 03:42:05;;;;;;;382.10;56.50;;;7.20;99.90;;;;;;5062749;28;20494;-69
2022/11/30 03:44:32;;;;;;;495.77;64.73;;;7.20;99.90;;;;;;5054502;28;20460;-69
2022/11/30 03:46:58;;;;;;;524.97;66.47;;;7.30;99.90;;;;;;5057139;28;20545;-69
2022/11/30 03:49:26;;;;;;;411.37;57.27;;;7.20;99.90;;;;;;5062672;28;20588;-69
2022/11/30 03:51:53;;;;;;;473.30;59.17;;;7.30;99.90;;;;;;5059288;28;20790;-69
2022/11/30 03:54:20;;;;;;;228.93;52.90;;;7.30;99.90;;;;;;5056779;28;20471;-68
2022/11/30 03:56:48;;;;;;;259.10;51.03;;;7.30;99.90;;;;;;5061198;28;20459;-69
2022/11/30 03:59:15;;;;;;;230.97;49.00;;;7.30;99.90;;;;;;5063578;28;20956;-68
2022/11/30 04:01:42;;;;;;;151.10;47.07;;;7.40;99.90;;;;;;5060975;28;20461;-70
2022/11/30 04:04:09;;;;;;;99.03;45.00;;;7.50;99.90;;;;;;5055983;28;20483;-69
2022/11/30 04:06:35;;;;;;;86.53;47.50;;;7.50;99.90;;;;;;5061139;28;20459;-69
2022/11/30 04:09:02;;;;;;;83.70;43.70;;;7.50;99.90;;;;;;5059979;28;20847;-69
2022/11/30 04:11:29;;;;;;;86.27;42.17;;;7.50;99.90;;;;;;5057227;28;20469;-69
2022/11/30 04:13:57;;;;;;;75.13;43.07;;;7.50;99.90;;;;;;5052062;28;20456;-69
2022/11/30 04:16:24;;;;;;;71.43;40.60;;;7.40;99.90;;;;;;5058187;28;20851;-69
2022/11/30 04:18:51;;;;;;;59.27;38.77;;;7.40;99.90;;;;;;5051174;28;20472;-69
2022/11/30 04:21:20;;;;;;;65.23;40.03;;;7.30;99.90;;;;;;5059949;28;20469;-69
2022/11/30 04:23:47;;;;;;;60.33;41.63;;;7.30;99.90;;;;;;5060107;28;20494;-69
2022/11/30 04:26:15;;;;;;;66.50;43.43;;;7.40;99.90;;;;;;5058564;28;20869;-68
2022/11/30 04:28:43;;;;;;;64.53;39.90;;;7.40;99.90;;;;;;5052334;28;20475;-69
2022/11/30 04:31:12;;;;;;;57.77;39.43;;;7.40;99.90;;;;;;5052740;28;21411;-69
2022/11/30 04:33:39;;;;;;;64.10;41.07;;;7.40;99.90;;;;;;5060811;28;20474;-68
2022/11/30 04:36:07;;;;;;;65.00;38.83;;;7.30;99.90;;;;;;5053721;28;20976;-68
2022/11/30 04:38:36;;;;;;;62.10;39.17;;;7.30;99.90;;;;;;5060127;28;20463;-68
2022/11/30 04:41:07;;;;;;;59.50;40.97;;;7.20;99.90;;;;;;5062044;28;20466;-68
2022/11/30 04:43:34;;;;;;;67.33;40.80;;;7.10;99.90;;;;;;5049198;28;20497;-69
2022/11/30 04:46:01;;;;;;;54.17;38.40;;;7.10;99.90;;;;;;5054372;28;20464;-68
2022/11/30 04:48:30;;;;;;;51.67;37.93;;;7.10;99.90;;;;;;5058662;28;20517;-68
2022/11/30 04:51:01;;;;;;;53.47;37.53;;;7.00;99.90;;;;;;5060122;28;20485;-69
2022/11/30 04:53:27;;;;;;;51.77;38.07;;;7.00;99.90;;;;;;5061790;28;20564;-69
2022/11/30 04:55:54;;;;;;;52.10;38.47;;;7.00;99.90;;;;;;5056725;28;20477;-69
2022/11/30 04:58:22;;;;;;;52.47;39.57;;;7.00;99.90;;;;;;5055859;28;20485;-69
2022/11/30 05:00:48;;;;;;;55.63;38.80;;;7.00;99.90;;;;;;5055971;28;20463;-69
2022/11/30 05:03:16;;;;;;;56.67;39.97;;;7.00;99.90;;;;;;5049411;28;20828;-68
2022/11/30 05:05:44;;;;;;;54.63;39.73;;;7.00;99.90;;;;;;5054368;28;20509;-68
2022/11/30 05:08:11;;;;;;;52.70;38.27;;;7.00;99.90;;;;;;5032570;28;20455;-68
2022/11/30 05:10:37;;;;;;;51.63;39.50;;;7.00;99.90;;;;;;5037914;28;20465;-68
2022/11/30 05:13:04;;;;;;;52.17;39.37;;;7.00;99.90;;;;;;5041250;28;20862;-70
2022/11/30 05:15:32;;;;;;;57.93;39.83;;;6.90;99.90;;;;;;5033334;28;20459;-71
2022/11/30 05:17:59;;;;;;;52.17;39.67;;;7.00;99.90;;;;;;5035649;28;20553;-71
2022/11/30 05:20:26;;;;;;;53.03;41.27;;;7.00;99.90;;;;;;5025098;28;20455;-69
2022/11/30 05:22:54;;;;;;;57.80;41.80;;;6.90;99.90;;;;;;5030335;28;20487;-69
2022/11/30 05:25:21;;;;;;;64.50;42.73;;;7.00;99.90;;;;;;5034705;28;20563;-71
2022/11/30 05:27:48;;;;;;;55.23;40.60;;;6.90;99.90;;;;;;5031619;28;20475;-71
2022/11/30 05:30:15;;;;;;;59.03;42.00;;;6.90;99.90;;;;;;5032701;28;20468;-70
2022/11/30 05:32:42;;;;;;;57.47;41.20;;;6.90;99.90;;;;;;5038921;28;20475;-69
2022/11/30 05:35:09;;;;;;;49.43;39.93;;;6.90;99.90;;;;;;5029272;28;21008;-71
2022/11/30 05:37:36;;;;;;;52.40;41.17;;;6.90;99.90;;;;;;5028188;28;20461;-70
2022/11/30 05:40:05;;;;;;;53.20;40.97;;;6.90;99.90;;;;;;5034722;28;21134;-69
2022/11/30 05:42:33;;;;;;;59.47;43.03;;;6.90;99.90;;;;;;5028158;28;20487;-70
2022/11/30 05:45:00;;;;;;;54.17;42.67;;;6.90;99.90;;;;;;5036642;28;20870;-70
2022/11/30 05:47:26;;;;;;;62.73;43.40;;;6.90;99.90;;;;;;5038689;28;20483;-70
2022/11/30 05:49:54;;;;;;;53.13;41.63;;;6.90;99.90;;;;;;5030834;28;20464;-69
2022/11/30 05:52:20;;;;;;;55.00;41.30;;;6.90;99.90;;;;;;5030684;28;20462;-69
2022/11/30 05:54:47;;;;;;;54.97;39.97;;;6.90;99.90;;;;;;5039402;28;20460;-71
2022/11/30 05:57:15;;;;;;;57.20;39.87;;;6.80;99.90;;;;;;5034138;28;20869;-69
2022/11/30 05:59:42;;;;;;;57.20;41.00;;;6.90;99.90;;;;;;5028456;28;20464;-70
2022/11/30 06:02:10;;;;;;;54.43;40.43;;;6.90;99.90;;;;;;5038800;28;20737;-71
2022/11/30 06:04:36;;;;;;;54.90;40.20;;;6.90;99.90;;;;;;5037345;28;20895;-70
2022/11/30 06:07:03;;;;;;;56.63;40.80;;;6.90;99.90;;;;;;5054333;28;20461;-70
2022/11/30 06:09:30;;;;;;;60.50;41.30;;;6.80;99.90;;;;;;5054247;28;20468;-69
2022/11/30 06:11:57;;;;;;;54.97;41.20;;;6.80;99.90;;;;;;5055861;28;20455;-70
2022/11/30 06:14:25;;;;;;;59.47;42.03;;;6.80;99.90;;;;;;5061797;28;20537;-72
2022/11/30 06:16:52;;;;;;;57.80;43.80;;;6.90;99.90;;;;;;5063993;28;20461;-68
2022/11/30 06:19:19;;;;;;;63.37;43.93;;;6.90;99.90;;;;;;5056674;28;20471;-71
2022/11/30 06:21:46;;;;;;;56.57;42.13;;;6.80;99.90;;;;;;5058899;28;20466;-71
2022/11/30 06:24:13;;;;;;;62.17;43.20;;;6.80;99.90;;;;;;5059081;28;20494;-72
2022/11/30 06:26:41;;;;;;;60.23;44.60;;;6.70;99.90;;;;;;5059323;28;20544;-72
2022/11/30 06:29:10;;;;;;;59.67;44.00;;;6.70;99.90;;;;;;5057532;28;20459;-69
2022/11/30 06:31:38;;;;;;;57.43;41.27;;;6.60;99.90;;;;;;5063975;28;20486;-70
2022/11/30 06:34:05;;;;;;;52.63;39.80;;;6.60;99.90;;;;;;5064190;28;20472;-71
2022/11/30 06:36:32;;;;;;;58.67;40.23;;;6.60;99.90;;;;;;5060954;28;20467;-70
2022/11/30 06:38:59;;;;;;;57.40;39.90;;;6.50;99.90;;;;;;5064589;28;20462;-72
2022/11/30 06:41:26;;;;;;;57.40;41.00;;;6.50;99.90;;;;;;5062300;28;20463;-71
2022/11/30 06:43:53;;;;;;;56.97;42.10;;;6.40;99.90;;;;;;5064010;28;20565;-68
2022/11/30 06:46:21;;;;;;;67.03;45.93;;;6.30;99.90;;;;;;5053807;28;20814;-68
2022/11/30 06:48:50;;;;;;;56.87;41.60;;;6.20;99.90;;;;;;5058409;28;20481;-70
2022/11/30 06:51:17;;;;;;;64.77;45.00;;;6.20;99.90;;;;;;5056909;28;20487;-71
2022/11/30 06:53:44;;;;;;;60.77;41.63;;;6.20;99.90;;;;;;5056411;28;20471;-71
2022/11/30 06:56:12;;;;;;;58.10;43.33;;;6.20;99.90;;;;;;5054776;28;20469;-69
2022/11/30 06:58:39;;;;;;;56.60;43.70;;;6.20;99.90;;;;;;5059854;28;20523;-71
2022/11/30 07:01:08;;;;;;;59.10;40.70;;;6.20;99.90;;;;;;5064457;28;20458;-69
2022/11/30 07:03:35;;;;;;;65.37;43.67;;;6.10;99.90;;;;;;5065511;28;20488;-68
2022/11/30 07:06:06;;;;;;;64.07;45.17;;;6.00;99.90;;;;;;5058398;28;20482;-72
2022/11/30 07:08:33;;;;;;;64.50;43.57;;;5.90;99.90;;;;;;5061288;28;20478;-70
2022/11/30 07:11:01;;;;;;;60.67;44.70;;;5.80;99.90;;;;;;5063186;28;20539;-71
2022/11/30 07:13:28;;;;;;;55.70;41.70;;;5.80;99.90;;;;;;5057507;28;20508;-69
2022/11/30 07:15:56;;;;;;;55.27;43.17;;;5.70;99.90;;;;;;5059965;28;20502;-70
2022/11/30 07:18:23;;;;;;;56.20;41.47;;;5.60;99.90;;;;;;5063201;28;20510;-72
2022/11/30 07:20:50;;;;;;;58.37;44.70;;;5.50;99.90;;;;;;5063392;28;20470;-71
2022/11/30 07:26:06;;;;;;;56.63;42.10;;;5.30;99.90;;;;;;5065228;28;20454;-69
2022/11/30 07:28:33;;;;;;;59.37;43.83;;;5.20;99.90;;;;;;5065233;28;20958;-69
2022/11/30 07:31:00;;;;;;;64.60;45.47;;;5.10;99.90;;;;;;5055618;28;20943;-71
2022/11/30 07:33:27;;;;;;;55.60;45.20;;;5.10;99.90;;;;;;5060183;28;20545;-71
2022/11/30 07:35:54;;;;;;;62.53;44.53;;;5.00;99.90;;;;;;5063530;28;21450;-70
2022/11/30 07:38:22;;;;;;;60.07;44.77;;;5.00;99.90;;;;;;5064959;28;21057;-70
2022/11/30 07:40:50;;;;;;;60.17;42.27;;;4.90;99.90;;;;;;5062122;28;20488;-71
2022/11/30 07:43:17;;;;;;;53.10;41.97;;;4.90;99.90;;;;;;5062003;28;20561;-68
2022/11/30 07:45:50;;;;;;;54.13;42.80;;;4.90;99.90;;;;;;5061855;28;20556;-68
2022/11/30 07:48:17;;;;;;;57.23;43.60;;;4.90;99.90;;;;;;5059761;28;20483;-68
2022/11/30 07:50:44;;;;;;;53.97;42.67;;;4.80;99.90;;;;;;5061336;28;20648;-70
2022/11/30 07:53:12;;;;;;;62.23;44.73;;;4.80;99.90;;;;;;5055219;28;20983;-71
2022/11/30 07:55:40;;;;;;;62.20;43.03;;;4.70;99.90;;;;;;5063728;28;20482;-72
2022/11/30 07:58:08;;;;;;;56.80;45.90;;;4.70;99.90;;;;;;5059490;28;20456;-72
2022/11/30 08:00:35;;;;;;;65.43;44.77;;;4.70;99.90;;;;;;5052822;28;20595;-70
2022/11/30 08:03:02;;;;;;;61.27;45.07;;;4.70;99.90;;;;;;5054421;28;20467;-71
2022/11/30 08:05:29;;;;;;;68.67;44.60;;;4.70;99.90;;;;;;5051040;28;20488;-70
2022/11/30 08:07:56;;;;;;;55.13;43.50;;;4.60;99.90;;;;;;5037969;28;21239;-71
2022/11/30 08:10:24;;;;;;;62.83;45.17;;;4.60;99.90;;;;;;5046662;28;20460;-69
2022/11/30 08:12:53;;;;;;;64.20;42.57;;;4.70;99.90;;;;;;5039798;28;20480;-68
2022/11/30 08:15:20;;;;;;;61.77;43.13;;;4.70;99.90;;;;;;5035981;28;20464;-70
2022/11/30 08:17:49;;;;;;;51.40;42.03;;;4.70;99.90;;;;;;5030389;28;20527;-69
2022/11/30 08:20:16;;;;;;;61.40;42.93;;;4.80;99.90;;;;;;5047609;28;20471;-70
2022/11/30 08:22:43;;;;;;;55.17;43.67;;;4.90;99.90;;;;;;5045798;28;20463;-69
2022/11/30 08:25:09;;;;;;;52.80;42.03;;;4.90;99.90;;;;;;5038690;28;20488;-71
2022/11/30 08:27:36;;;;;;;63.03;45.17;;;5.00;99.90;;;;;;5037340;28;21024;-71
2022/11/30 08:30:06;;;;;;;58.27;44.10;;;5.10;99.90;;;;;;5040852;28;20463;-70
2022/11/30 08:32:33;;;;;;;60.03;45.23;;;5.10;99.90;;;;;;5040916;28;20460;-71
2022/11/30 08:35:00;;;;;;;58.33;40.87;;;5.20;99.90;;;;;;5043781;28;20471;-69
2022/11/30 08:37:27;;;;;;;58.87;44.73;;;5.30;99.90;;;;;;5045769;28;20473;-70
2022/11/30 08:39:53;;;;;;;66.50;46.90;;;5.40;99.90;;;;;;5034320;28;20467;-70
2022/11/30 08:42:20;;;;;;;57.50;44.40;;;5.40;99.90;;;;;;5036800;28;20477;-73
2022/11/30 08:44:47;;;;;;;66.33;45.67;;;5.50;99.90;;;;;;5033488;28;20515;-72
2022/11/30 08:47:15;;;;;;;68.60;48.10;;;5.60;99.90;;;;;;5042551;28;20566;-69
2022/11/30 08:49:43;;;;;;;69.77;46.13;;;5.60;99.90;;;;;;5047707;28;20487;-72
2022/11/30 08:52:10;;;;;;;70.83;45.33;;;5.70;99.90;;;;;;5034394;28;20470;-71
2022/11/30 08:54:38;;;;;;;65.97;46.20;;;5.90;99.90;;;;;;5040051;28;20712;-69
2022/11/30 08:57:05;;;;;;;62.60;44.30;;;6.00;99.90;;;;;;5045989;28;21231;-70
2022/11/30 08:59:32;;;;;;;64.60;47.00;;;6.10;99.90;;;;;;5040863;28;20464;-68
2022/11/30 09:01:59;;;;;;;69.60;43.17;;;6.20;99.90;;;;;;5043624;28;20465;-70
2022/11/30 09:04:28;;;;;;;57.07;41.90;;;6.30;99.90;;;;;;5044451;28;20494;-69
2022/11/30 09:06:57;;;;;;;61.70;43.10;;;6.30;99.90;;;;;;5061639;28;20815;-71
2022/11/30 09:09:24;;;;;;;63.70;40.43;;;6.40;99.90;;;;;;5060383;28;20460;-68
2022/11/30 09:11:51;;;;;;;62.40;42.30;;;6.40;99.90;;;;;;5062362;28;20585;-69
2022/11/30 09:14:18;;;;;;;58.23;41.57;;;6.40;99.90;;;;;;5058137;28;20519;-69
2022/11/30 09:16:45;;;;;;;66.93;41.90;;;6.30;99.90;;;;;;5055067;28;20469;-70
2022/11/30 09:19:12;;;;;;;63.67;43.17;;;6.40;99.90;;;;;;5057788;28;20528;-72
2022/11/30 09:21:40;;;;;;;64.53;42.70;;;6.30;99.90;;;;;;5056420;28;20495;-69
2022/11/30 09:24:08;;;;;;;58.57;40.00;;;6.30;99.90;;;;;;5057239;28;21024;-69
2022/11/30 09:26:35;;;;;;;60.23;42.17;;;6.30;99.90;;;;;;5065296;28;20467;-70
2022/11/30 09:29:03;;;;;;;65.50;42.33;;;6.30;99.90;;;;;;5057546;28;20587;-71
2022/11/30 09:31:30;;;;;;;57.13;41.30;;;6.30;99.90;;;;;;5056311;28;20519;-72
2022/11/30 09:33:58;;;;;;;57.63;41.70;;;6.30;99.90;;;;;;5059915;28;20474;-68
2022/11/30 09:36:27;;;;;;;67.63;39.97;;;6.30;99.90;;;;;;5054581;28;20537;-69
2022/11/30 09:38:57;;;;;;;61.10;42.63;;;6.30;99.90;;;;;;5058733;28;20460;-71
2022/11/30 09:41:40;;;;;;;61.17;43.60;;;6.40;99.90;;;;;;5059284;28;20464;-72
2022/11/30 09:44:16;;;;;;;53.93;38.43;;;6.30;99.90;;;;;;5060693;28;20486;-69
2022/11/30 09:46:48;;;;;;;55.87;40.30;;;6.30;99.90;;;;;;5058927;28;20476;-69
2022/11/30 09:49:19;;;;;;;57.63;38.17;;;6.20;99.90;;;;;;5060701;28;20467;-70
2022/11/30 09:51:47;;;;;;;56.47;40.20;;;6.20;99.90;;;;;;5054359;28;20470;-69
2022/11/30 09:54:21;;;;;;;68.77;42.53;;;6.20;99.90;;;;;;5056158;28;20478;-72
2022/11/30 09:56:48;;;;;;;56.50;39.80;;;6.20;99.90;;;;;;5057716;28;20473;-68
2022/11/30 09:59:20;;;;;;;61.77;39.97;;;6.30;99.90;;;;;;5057455;28;20455;-70
2022/11/30 10:01:48;;;;;;;63.33;38.47;;;6.40;99.90;;;;;;5055446;28;20467;-68
2022/11/30 10:04:22;;;;;;;59.87;39.07;;;6.30;99.90;;;;;;5061479;28;20501;-69
2022/11/30 10:06:59;;;;;;;52.60;38.73;;;6.40;99.90;;;;;;5059545;28;20555;-68
2022/11/30 10:09:34;;;;;;;59.03;38.90;;;6.50;99.90;;;;;;5058117;28;20454;-68
2022/11/30 10:12:05;;;;;;;58.90;39.77;;;6.40;99.90;;;;;;5056402;28;20477;-70
2022/11/30 10:14:51;;;;;;;56.97;35.03;;;6.40;99.90;;;;;;5058889;28;20469;-69
2022/11/30 10:17:32;;;;;;;59.87;39.50;;;6.50;99.90;;;;;;5057240;28;20460;-71
2022/11/30 10:20:22;;;;;;;48.10;35.63;;;6.50;99.90;;;;;;5052981;28;20473;-69
2022/11/30 10:23:05;;;;;;;55.40;38.40;;;6.60;99.90;;;;;;5056641;28;20459;-72
2022/11/30 10:25:44;;;;;;;49.73;34.77;;;6.60;99.90;;;;;;5058293;28;21111;-71
2022/11/30 10:28:17;;;;;;;57.20;36.40;;;6.60;99.90;;;;;;5060933;28;20468;-71
2022/11/30 10:30:46;;;;;;;56.90;35.17;;;6.70;99.90;;;;;;5060037;28;20486;-69
2022/11/30 10:33:17;;;;;;;51.43;36.23;;;6.70;99.90;;;;;;5060843;28;20981;-68
2022/11/30 10:35:48;;;;;;;57.83;35.70;;;6.60;99.90;;;;;;5058892;28;20927;-71
2022/11/30 10:38:19;;;;;;;51.30;35.20;;;6.70;99.90;;;;;;5061417;28;20472;-68
2022/11/30 10:40:53;;;;;;;68.73;37.70;;;6.80;99.90;;;;;;5062254;28;20467;-69
2022/11/30 10:43:27;;;;;;;54.87;35.80;;;6.90;99.90;;;;;;5057737;28;20463;-68
2022/11/30 10:45:54;;;;;;;54.20;37.37;;;7.00;99.90;;;;;;5060311;28;20535;-69
2022/11/30 10:48:28;;;;;;;56.03;35.83;;;7.00;99.90;;;;;;5060786;28;20493;-71
2022/11/30 10:50:55;;;;;;;56.60;34.63;;;6.90;99.90;;;;;;5058804;28;20465;-71
2022/11/30 10:53:22;;;;;;;59.90;34.50;;;6.90;99.90;;;;;;5061352;28;20551;-70
2022/11/30 10:55:57;;;;;;;53.30;33.90;;;7.00;99.90;;;;;;5061853;28;20510;-70
2022/11/30 10:58:28;;;;;;;56.73;34.83;;;6.90;99.90;;;;;;5056655;28;20459;-71
2022/11/30 11:01:01;;;;;;;56.10;35.00;;;6.90;99.90;;;;;;5059165;28;20505;-69
2022/11/30 11:03:28;;;;;;;49.37;32.87;;;7.00;99.90;;;;;;5062771;28;20817;-69
2022/11/30 11:06:18;;;;;;;48.87;32.30;;;7.10;99.90;;;;;;5062590;28;20973;-68
2022/11/30 11:08:45;;;;;;;48.60;34.87;;;7.00;99.90;;;;;;5059431;28;20464;-71
2022/11/30 11:11:35;;;;;;;51.70;34.97;;;7.00;99.90;;;;;;5060494;28;20469;-71
2022/11/30 11:14:14;;;;;;;53.93;35.30;;;7.00;99.90;;;;;;5059369;28;20454;-71
2022/11/30 11:16:51;;;;;;;54.73;33.87;;;7.10;99.90;;;;;;5065872;28;20473;-69
2022/11/30 11:19:32;;;;;;;57.40;36.23;;;7.20;99.90;;;;;;5058650;28;20495;-69
2022/11/30 11:21:59;;;;;;;41.57;32.47;;;7.30;99.90;;;;;;5060883;28;20550;-70
2022/11/30 11:24:27;;;;;;;49.83;32.03;;;7.20;99.90;;;;;;5060171;28;20528;-70
2022/11/30 11:26:57;;;;;;;52.33;32.93;;;7.20;99.90;;;;;;5061040;28;20471;-67
2022/11/30 11:29:32;;;;;;;57.60;32.80;;;7.30;99.90;;;;;;5058723;28;20559;-72
2022/11/30 11:32:21;;;;;;;53.30;33.90;;;7.20;99.90;;;;;;5062003;28;20550;-68
2022/11/30 11:34:49;;;;;;;55.43;32.83;;;7.40;99.90;;;;;;5058623;28;21134;-71
2022/11/30 11:37:21;;;;;;;46.17;32.43;;;7.50;99.90;;;;;;5056785;28;20477;-71
2022/11/30 11:40:04;;;;;;;45.27;30.73;;;7.50;99.90;;;;;;5057638;28;20465;-69
2022/11/30 11:42:37;;;;;;;50.20;34.23;;;7.40;99.90;;;;;;5055387;28;20544;-72
2022/11/30 11:45:05;;;;;;;53.20;33.40;;;7.40;99.90;;;;;;5060944;28;20518;-72
2022/11/30 11:47:39;;;;;;;52.73;34.90;;;7.50;99.90;;;;;;5065455;28;20485;-72
2022/11/30 11:50:21;;;;;;;58.40;34.10;;;7.50;99.90;;;;;;5063738;28;20553;-71
2022/11/30 11:52:49;;;;;;;54.93;32.00;;;7.50;99.90;;;;;;5061898;28;21210;-72
2022/11/30 11:55:18;;;;;;;54.10;32.70;;;7.60;99.90;;;;;;5061615;28;20727;-72
2022/11/30 11:57:51;;;;;;;51.23;33.73;;;7.50;99.90;;;;;;5062606;28;20486;-73
2022/11/30 12:00:20;;;;;;;53.90;35.70;;;7.60;99.90;;;;;;5064206;28;20496;-69
2022/11/30 12:02:56;;;;;;;55.00;35.10;;;7.70;99.90;;;;;;5049727;28;20460;-69
2022/11/30 12:05:26;;;;;;;51.07;34.70;;;7.60;99.90;;;;;;5055107;28;20501;-70
2022/11/30 12:08:06;;;;;;;60.17;35.03;;;7.50;99.90;;;;;;5062788;28;20470;-71
2022/11/30 12:10:38;;;;;;;56.60;35.90;;;7.60;99.90;;;;;;5059221;28;20486;-71
2022/11/30 12:13:14;;;;;;;54.50;33.67;;;7.60;99.90;;;;;;5060894;28;20470;-71
2022/11/30 12:15:50;;;;;;;56.00;33.80;;;7.70;99.90;;;;;;5057485;28;21508;-69
2022/11/30 12:18:21;;;;;;;52.07;35.67;;;7.80;99.90;;;;;;5064099;28;20457;-71
2022/11/30 12:20:55;;;;;;;48.80;32.60;;;7.90;99.90;;;;;;5061978;28;20462;-68
2022/11/30 12:23:38;;;;;;;60.23;35.60;;;7.90;99.90;;;;;;5060801;28;20462;-68
2022/11/30 12:26:12;;;;;;;49.20;34.67;;;8.00;99.90;;;;;;5059679;28;20497;-72
2022/11/30 12:28:52;;;;;;;47.27;33.87;;;8.00;99.90;;;;;;5059732;28;20463;-70
2022/11/30 12:31:19;;;;;;;52.70;35.47;;;7.90;99.90;;;;;;5059363;28;20465;-72
2022/11/30 12:34:01;;;;;;;56.43;35.57;;;7.80;99.90;;;;;;5052269;28;20460;-69
2022/11/30 12:36:41;;;;;;;50.73;34.93;;;7.90;99.90;;;;;;5057141;28;20466;-72
2022/11/30 12:39:14;;;;;;;54.40;34.27;;;7.90;99.90;;;;;;5060454;28;20478;-70
2022/11/30 12:41:45;;;;;;;50.70;33.83;;;7.90;99.90;;;;;;5053980;28;20454;-70
2022/11/30 12:44:27;;;;;;;52.00;33.33;;;8.00;99.90;;;;;;5056024;28;20472;-69
2022/11/30 12:47:04;;;;;;;54.03;35.83;;;7.90;99.90;;;;;;5056753;28;20542;-70